Time;durP1;ratioP1;P1;durP2;ratioP2;P2;SDS_P1;SDS_P2;PMS_P1;PMS_P2;Temp;Humidity;BMP_temperature;BMP_pressure;BME280_temperature;BME280_humidity;BME280_pressure;Samples;Min_cycle;Max_cycle;Signal;HPM_P1;HPM_P2
2023/10/24 00:00:36;;;;;;;;;;;;;;;4.75;68.40;98887.28;4866664;29;19931;-75
2023/10/24 00:03:02;;;;;;;;;;;;;;;4.72;68.42;98895.00;4849248;29;19923;-73
2023/10/24 00:05:30;;;;;;;;;;;;;;;4.73;69.29;98884.72;4876232;29;20427;-73
2023/10/24 00:07:58;;;;;;;;;;;;;;;4.74;68.42;98896.75;4863895;29;19935;-73
2023/10/24 00:10:25;;;;;;;;;;;;;;;4.71;68.18;98891.59;4862056;29;19928;-73
2023/10/24 00:12:51;;;;;;;;;;;;;;;4.76;68.36;98902.72;4866770;29;20374;-74
2023/10/24 00:15:16;;;;;;;;;;;;;;;4.77;68.77;98901.03;4864169;29;19974;-74
2023/10/24 00:17:43;;;;;;;;;;;;;;;4.81;68.20;98898.44;4877386;29;19932;-74
2023/10/24 00:20:09;;;;;;;;;;;;;;;4.83;68.33;98903.63;4876911;29;19923;-73
2023/10/24 00:22:35;;;;;;;;;;;;;;;4.82;68.66;98907.91;4876189;29;19928;-74
2023/10/24 00:25:01;;;;;;;;;;;;;;;4.81;69.00;98911.34;4878416;29;19952;-73
2023/10/24 00:27:29;;;;;;;;;;;;;;;4.73;67.69;98915.63;4877394;29;19947;-74
2023/10/24 00:29:55;;;;;;;;;;;;;;;4.73;68.45;98914.75;4876065;29;19948;-74
2023/10/24 00:32:24;;;;;;;;;;;;;;;4.80;68.71;98904.44;4862588;29;20003;-73
2023/10/24 00:34:53;;;;;;;;;;;;;;;4.85;68.70;98911.34;4874429;29;19928;-74
2023/10/24 00:37:19;;;;;;;;;;;;;;;4.87;68.52;98913.03;4864270;29;20027;-74
2023/10/24 00:39:46;;;;;;;;;;;;;;;4.96;68.67;98919.94;4850263;29;20003;-73
2023/10/24 00:42:11;;;;;;;;;;;;;;;5.00;68.73;98913.91;4880861;29;19930;-75
2023/10/24 00:44:38;;;;;;;;;;;;;;;4.96;68.22;98920.78;4876604;29;19928;-74
2023/10/24 00:47:04;;;;;;;;;;;;;;;4.97;68.49;98922.50;4878501;29;20715;-72
2023/10/24 00:49:30;;;;;;;;;;;;;;;5.02;68.73;98926.81;4878957;29;19931;-72
2023/10/24 00:51:59;;;;;;;;;;;;;;;5.06;68.34;98931.13;4876203;29;19923;-72
2023/10/24 00:54:28;;;;;;;;;;;;;;;5.09;68.37;98929.38;4866028;29;20489;-73
2023/10/24 00:56:54;;;;;;;;;;;;;;;5.08;68.31;98937.97;4877493;29;19923;-74
2023/10/24 00:59:21;;;;;;;;;;;;;;;5.11;68.51;98937.09;4863283;29;20054;-74
2023/10/24 01:01:47;;;;;;;;;;;;;;;5.09;67.88;98944.84;4877723;29;19924;-76
2023/10/24 01:04:14;;;;;;;;;;;;;;;5.04;67.71;98938.84;4878449;29;20351;-73
2023/10/24 01:06:40;;;;;;;;;;;;;;;4.95;67.92;98942.28;4850949;29;19924;-74
2023/10/24 01:09:07;;;;;;;;;;;;;;;4.92;67.68;98946.59;4862092;29;19931;-75
2023/10/24 01:11:33;;;;;;;;;;;;;;;4.97;68.37;98947.41;4876666;29;19932;-75
2023/10/24 01:14:01;;;;;;;;;;;;;;;5.00;68.80;98947.41;4865232;29;20007;-74
2023/10/24 01:16:28;;;;;;;;;;;;;;;5.05;68.43;98948.28;4861337;29;19991;-75
2023/10/24 01:18:56;;;;;;;;;;;;;;;5.08;67.96;98950.00;4875270;29;19932;-75
2023/10/24 01:21:23;;;;;;;;;;;;;;;5.16;67.95;98955.19;4890281;29;19939;-75
2023/10/24 01:23:49;;;;;;;;;;;;;;;5.16;68.61;98950.88;4858949;29;19930;-75
2023/10/24 01:26:17;;;;;;;;;;;;;;;5.13;67.01;98956.03;4877252;29;19924;-74
2023/10/24 01:28:43;;;;;;;;;;;;;;;5.21;67.32;98958.59;4850775;29;19928;-74
2023/10/24 01:31:12;;;;;;;;;;;;;;;5.19;67.98;98966.34;4865030;29;20379;-74
2023/10/24 01:33:42;;;;;;;;;;;;;;;5.15;67.86;98968.94;4877851;29;19932;-74
2023/10/24 01:36:10;;;;;;;;;;;;;;;5.19;67.30;98962.88;4875646;29;20018;-74
2023/10/24 01:38:36;;;;;;;;;;;;;;;5.18;67.55;98963.78;4875839;29;19951;-75
2023/10/24 01:41:02;;;;;;;;;;;;;;;5.19;67.77;98968.03;4861602;29;19992;-75
2023/10/24 01:43:29;;;;;;;;;;;;;;;5.20;67.59;98967.19;4862281;29;19924;-75
2023/10/24 01:45:55;;;;;;;;;;;;;;;5.15;67.57;98969.78;4865580;29;19927;-75
2023/10/24 01:48:25;;;;;;;;;;;;;;;5.17;68.41;98975.81;4876351;29;19934;-74
2023/10/24 01:50:51;;;;;;;;;;;;;;;5.18;68.27;98984.41;4873192;29;20393;-75
2023/10/24 01:53:17;;;;;;;;;;;;;;;5.19;67.66;98978.38;4859380;29;19924;-75
2023/10/24 01:55:43;;;;;;;;;;;;;;;5.18;67.82;98989.56;4872628;29;19967;-71
2023/10/24 01:58:09;;;;;;;;;;;;;;;5.20;67.48;98996.44;4845397;29;19992;-70
2023/10/24 02:00:35;;;;;;;;;;;;;;;5.25;67.61;98996.44;4878456;29;19949;-69
2023/10/24 02:03:00;;;;;;;;;;;;;;;5.23;67.14;98990.41;4864732;29;19924;-69
2023/10/24 02:05:26;;;;;;;;;;;;;;;5.26;67.90;99006.75;4874414;29;19967;-70
2023/10/24 02:07:53;;;;;;;;;;;;;;;5.24;67.64;99010.19;4859413;29;19938;-70
2023/10/24 02:10:19;;;;;;;;;;;;;;;5.27;67.63;99010.19;4872933;29;19923;-69
2023/10/24 02:12:47;;;;;;;;;;;;;;;5.28;68.14;99012.78;4858530;29;19936;-70
2023/10/24 02:15:17;;;;;;;;;;;;;;;5.25;67.77;99011.91;4872291;29;20359;-70
2023/10/24 02:17:43;;;;;;;;;;;;;;;5.29;67.50;99008.47;4872649;29;20067;-70
2023/10/24 02:20:09;;;;;;;;;;;;;;;5.32;67.51;99017.91;4845378;29;19931;-70
2023/10/24 02:22:42;;;;;;;;;;;;;;;5.03;67.31;98970.63;4872764;29;20390;-69
2023/10/24 02:25:09;;;;;;;;;;;;;;;5.32;67.33;99015.34;4856794;29;19959;-71
2023/10/24 02:27:36;;;;;;;;;;;;;;;5.33;67.49;99019.66;4860157;29;19930;-70
2023/10/24 02:30:02;;;;;;;;;;;;;;;5.32;67.43;99023.97;4885470;29;19943;-70
2023/10/24 02:32:28;;;;;;;;;;;;;;;5.36;67.88;99024.81;4873018;29;19943;-70
2023/10/24 02:34:54;;;;;;;;;;;;;;;5.41;68.26;99023.09;4873599;29;19924;-70
2023/10/24 02:37:20;;;;;;;;;;;;;;;5.45;67.37;99032.56;4874137;29;19923;-69
2023/10/24 02:39:46;;;;;;;;;;;;;;;5.52;67.53;99034.25;4859916;29;19924;-70
2023/10/24 02:42:13;;;;;;;;;;;;;;;5.54;67.31;99022.22;4860221;29;19928;-69
2023/10/24 02:44:39;;;;;;;;;;;;;;;5.58;67.12;99033.41;4874021;29;19940;-69
2023/10/24 02:47:05;;;;;;;;;;;;;;;5.55;67.61;99031.69;4872359;29;20238;-70
2023/10/24 02:49:34;;;;;;;;;;;;;;;5.57;67.65;99029.97;4874705;29;19931;-69
2023/10/24 02:52:03;;;;;;;;;;;;;;;5.56;67.12;99029.97;4857898;29;19927;-70
2023/10/24 02:54:29;;;;;;;;;;;;;;;5.54;67.64;99037.69;4882586;29;19924;-69
2023/10/24 02:57:01;;;;;;;;;;;;;;;5.56;67.30;99041.16;4858964;29;19981;-70
2023/10/24 02:59:27;;;;;;;;;;;;;;;5.60;67.05;99047.19;4871477;29;19924;-69
2023/10/24 03:01:54;;;;;;;;;;;;;;;5.58;66.98;99057.50;4871716;29;20694;-70
2023/10/24 03:04:22;;;;;;;;;;;;;;;5.61;67.06;99066.09;4857038;29;19928;-71
2023/10/24 03:06:48;;;;;;;;;;;;;;;5.68;67.29;99060.06;4875551;29;19987;-71
2023/10/24 03:09:14;;;;;;;;;;;;;;;5.64;66.65;99061.78;4873321;29;19928;-71
2023/10/24 03:11:40;;;;;;;;;;;;;;;5.66;66.58;99064.38;4873819;29;19948;-75
2023/10/24 03:14:06;;;;;;;;;;;;;;;5.64;66.60;99066.94;4878022;29;19995;-74
2023/10/24 03:16:33;;;;;;;;;;;;;;;5.64;67.00;99066.94;4863795;29;20423;-74
2023/10/24 03:19:00;;;;;;;;;;;;;;;5.66;67.06;99065.22;4888628;29;19924;-74
2023/10/24 03:21:25;;;;;;;;;;;;;;;5.67;66.84;99074.69;4870175;29;19924;-74
2023/10/24 03:23:52;;;;;;;;;;;;;;;5.66;67.41;99062.66;4867233;29;19924;-73
2023/10/24 03:26:19;;;;;;;;;;;;;;;5.65;67.20;99063.50;4861705;29;19923;-74
2023/10/24 03:28:45;;;;;;;;;;;;;;;5.72;67.13;99062.66;4875675;29;19932;-74
2023/10/24 03:31:14;;;;;;;;;;;;;;;5.75;67.58;99061.78;4872453;29;19971;-74
2023/10/24 03:33:40;;;;;;;;;;;;;;;5.72;66.99;99064.38;4872642;29;19924;-71
2023/10/24 03:36:11;;;;;;;;;;;;;;;5.67;66.80;99061.78;4871006;29;19924;-72
2023/10/24 03:38:37;;;;;;;;;;;;;;;5.64;67.14;99071.25;4869168;29;19927;-71
2023/10/24 03:41:03;;;;;;;;;;;;;;;5.62;66.94;99071.28;4861767;29;20177;-71
2023/10/24 03:43:28;;;;;;;;;;;;;;;5.64;67.07;99081.59;4872837;29;19931;-71
2023/10/24 03:45:54;;;;;;;;;;;;;;;5.64;67.35;99081.59;4862663;29;19953;-72
2023/10/24 03:48:20;;;;;;;;;;;;;;;5.61;67.09;99086.75;4873994;29;19983;-70
2023/10/24 03:50:46;;;;;;;;;;;;;;;5.55;66.87;99085.88;4876148;29;19928;-73
2023/10/24 03:53:17;;;;;;;;;;;;;;;5.56;67.19;99094.50;4878487;29;19924;-71
2023/10/24 03:55:43;;;;;;;;;;;;;;;5.63;67.31;99103.94;4878167;29;19935;-69
2023/10/24 03:58:09;;;;;;;;;;;;;;;5.66;67.39;99114.28;4876928;29;20014;-70
2023/10/24 04:00:36;;;;;;;;;;;;;;;5.64;67.47;99108.25;4875369;29;19931;-71
2023/10/24 04:03:03;;;;;;;;;;;;;;;5.65;67.12;99122.88;4849878;29;19924;-72
2023/10/24 04:05:32;;;;;;;;;;;;;;;5.69;67.53;99116.00;4861016;29;20022;-74
2023/10/24 04:07:59;;;;;;;;;;;;;;;5.76;67.57;99122.88;4851613;29;19923;-75
2023/10/24 04:10:32;;;;;;;;;;;;;;;5.73;66.47;99130.66;4864047;29;19930;-75
2023/10/24 04:12:58;;;;;;;;;;;;;;;5.69;66.45;99122.03;4853008;29;19960;-75
2023/10/24 04:15:27;;;;;;;;;;;;;;;5.68;66.95;99124.63;4829341;29;19944;-75
2023/10/24 04:17:53;;;;;;;;;;;;;;;5.68;67.55;99128.03;4844240;29;19928;-75
2023/10/24 04:20:21;;;;;;;;;;;;;;;5.53;67.22;99109.97;4842416;29;19925;-74
2023/10/24 04:22:47;;;;;;;;;;;;;;;5.72;67.52;99134.09;4844745;29;19928;-75
2023/10/24 04:25:13;;;;;;;;;;;;;;;5.72;66.81;99145.25;4847199;29;20459;-74
2023/10/24 04:27:42;;;;;;;;;;;;;;;5.69;66.70;99142.69;4843882;29;20115;-74
2023/10/24 04:30:11;;;;;;;;;;;;;;;5.68;67.18;99151.28;4844639;29;20053;-75
2023/10/24 04:32:37;;;;;;;;;;;;;;;5.68;67.16;99164.19;4855971;29;19985;-74
2023/10/24 04:35:05;;;;;;;;;;;;;;;5.68;67.13;99166.75;4832192;29;19928;-75
2023/10/24 04:37:34;;;;;;;;;;;;;;;5.64;66.41;99179.69;4831871;29;20055;-74
2023/10/24 04:40:00;;;;;;;;;;;;;;;5.61;66.82;99185.72;4846273;29;19984;-75
2023/10/24 04:42:31;;;;;;;;;;;;;;;5.60;66.88;99193.44;4861566;29;19953;-73
2023/10/24 04:45:00;;;;;;;;;;;;;;;5.60;66.63;99201.19;4849249;29;19999;-75
2023/10/24 04:47:26;;;;;;;;;;;;;;;5.59;66.86;99205.50;4862266;29;19973;-75
2023/10/24 04:49:51;;;;;;;;;;;;;;;5.56;67.18;99205.47;4865001;29;19924;-75
2023/10/24 04:52:26;;;;;;;;;;;;;;;5.51;66.29;99207.19;4850827;29;19942;-75
2023/10/24 04:54:53;;;;;;;;;;;;;;;5.53;66.51;99213.22;4826457;29;19984;-75
2023/10/24 04:57:22;;;;;;;;;;;;;;;5.52;66.74;99214.06;4844810;29;19924;-74
2023/10/24 04:59:54;;;;;;;;;;;;;;;5.46;66.57;99216.63;4848893;29;20364;-73
2023/10/24 05:02:20;;;;;;;;;;;;;;;5.50;66.50;99218.38;4864313;29;19924;-71
2023/10/24 05:04:46;;;;;;;;;;;;;;;5.52;66.35;99219.22;4844319;29;19936;-71
2023/10/24 05:07:17;;;;;;;;;;;;;;;5.49;66.35;99217.50;4848669;29;19924;-71
2023/10/24 05:09:51;;;;;;;;;;;;;;;5.50;66.32;99224.41;4855288;29;19968;-72
2023/10/24 05:12:18;;;;;;;;;;;;;;;5.46;65.97;99230.41;4841712;29;19932;-71
2023/10/24 05:14:44;;;;;;;;;;;;;;;5.39;66.08;99226.06;4863612;29;20018;-71
2023/10/24 05:17:13;;;;;;;;;;;;;;;5.40;66.17;99226.09;4863920;29;20014;-73
2023/10/24 05:19:42;;;;;;;;;;;;;;;5.40;66.01;99232.97;4853938;29;19954;-78
2023/10/24 05:22:10;;;;;;;;;;;;;;;5.40;65.81;99239.00;4865583;29;19959;-75
2023/10/24 05:24:36;;;;;;;;;;;;;;;5.40;65.55;99246.75;4866349;29;19927;-75
2023/10/24 05:27:04;;;;;;;;;;;;;;;5.39;65.87;99237.28;4872385;29;20454;-71
2023/10/24 05:29:34;;;;;;;;;;;;;;;5.40;65.89;99249.31;4851254;29;20280;-71
2023/10/24 05:31:59;;;;;;;;;;;;;;;5.41;66.42;99251.00;4861425;29;19952;-72
2023/10/24 05:34:29;;;;;;;;;;;;;;;5.46;66.23;99252.75;4848031;29;19924;-75
2023/10/24 05:36:58;;;;;;;;;;;;;;;5.51;65.34;99256.22;4849235;29;19960;-74
2023/10/24 05:39:28;;;;;;;;;;;;;;;5.46;65.72;99252.75;4861604;29;19928;-73
2023/10/24 05:42:04;;;;;;;;;;;;;;;5.42;65.60;99257.06;4862671;29;19927;-75
2023/10/24 05:44:31;;;;;;;;;;;;;;;5.47;65.76;99260.53;4851965;29;19928;-70
2023/10/24 05:47:02;;;;;;;;;;;;;;;5.47;65.86;99259.66;4878165;29;20067;-72
2023/10/24 05:49:34;;;;;;;;;;;;;;;5.55;65.73;99268.28;4852833;29;19953;-71
2023/10/24 05:52:07;;;;;;;;;;;;;;;5.59;65.57;99264.84;4856727;29;19934;-73
2023/10/24 05:54:36;;;;;;;;;;;;;;;5.52;65.70;99258.78;4866955;29;20105;-71
2023/10/24 05:57:02;;;;;;;;;;;;;;;5.54;66.11;99271.72;4864875;29;20039;-70
2023/10/24 05:59:35;;;;;;;;;;;;;;;5.50;65.41;99264.81;4861447;29;19937;-70
2023/10/24 06:02:06;;;;;;;;;;;;;;;5.50;65.89;99270.84;4870959;29;19924;-70
2023/10/24 06:04:35;;;;;;;;;;;;;;;5.56;65.53;99276.00;4850142;29;20027;-70
2023/10/24 06:07:04;;;;;;;;;;;;;;;5.64;66.24;99273.44;4849356;29;20326;-73
2023/10/24 06:09:51;;;;;;;;;;;;;;;5.66;65.86;99279.47;4864364;29;20277;-75
2023/10/24 06:12:20;;;;;;;;;;;;;;;5.69;65.62;99282.06;4849147;29;19928;-71
2023/10/24 06:14:47;;;;;;;;;;;;;;;5.75;65.69;99285.53;4876986;29;20413;-72
2023/10/24 06:17:17;;;;;;;;;;;;;;;5.75;65.53;99285.53;4878606;29;19931;-71
2023/10/24 06:19:45;;;;;;;;;;;;;;;5.75;64.84;99286.38;4877971;29;19979;-73
2023/10/24 06:22:14;;;;;;;;;;;;;;;5.70;65.74;99291.56;4882062;29;19928;-73
2023/10/24 06:24:48;;;;;;;;;;;;;;;5.76;65.28;99290.69;4862546;29;19928;-74
2023/10/24 06:27:16;;;;;;;;;;;;;;;5.82;65.46;99292.47;4850836;29;20113;-74
2023/10/24 06:29:42;;;;;;;;;;;;;;;5.88;65.29;99292.44;4881165;29;19923;-73
2023/10/24 06:32:08;;;;;;;;;;;;;;;5.93;65.85;99298.50;4878388;29;19998;-72
2023/10/24 06:34:34;;;;;;;;;;;;;;;5.98;64.91;99294.19;4848736;29;19927;-72
2023/10/24 06:37:02;;;;;;;;;;;;;;;6.03;65.41;99302.88;4856108;29;19923;-73
2023/10/24 06:39:29;;;;;;;;;;;;;;;6.06;65.36;99295.97;4876906;29;20026;-74
2023/10/24 06:41:55;;;;;;;;;;;;;;;6.08;65.40;99304.56;4851957;29;19924;-73
2023/10/24 06:44:22;;;;;;;;;;;;;;;6.04;64.89;99298.53;4881758;29;19966;-72
2023/10/24 06:46:49;;;;;;;;;;;;;;;6.08;65.02;99305.44;4854011;29;19931;-74
2023/10/24 06:49:25;;;;;;;;;;;;;;;6.09;65.32;99311.47;4877653;29;19924;-74
2023/10/24 06:52:17;;;;;;;;;;;;;;;6.07;64.84;99308.03;4866352;29;19924;-73
2023/10/24 06:54:47;;;;;;;;;;;;;;;6.01;65.43;99306.28;4874186;29;19931;-73
2023/10/24 06:57:18;;;;;;;;;;;;;;;5.99;65.17;99310.53;4866416;29;19934;-73
2023/10/24 06:59:55;;;;;;;;;;;;;;;5.99;65.19;99314.00;4868435;29;19924;-71
2023/10/24 07:02:21;;;;;;;;;;;;;;;6.01;65.14;99314.91;4850556;29;19948;-72
2023/10/24 07:04:52;;;;;;;;;;;;;;;6.00;64.71;99320.94;4867944;29;19927;-73
2023/10/24 07:07:20;;;;;;;;;;;;;;;6.03;65.48;99318.34;4867563;29;20426;-71
2023/10/24 07:09:46;;;;;;;;;;;;;;;6.02;64.87;99326.09;4868585;29;19932;-71
2023/10/24 07:12:13;;;;;;;;;;;;;;;6.09;64.98;99321.78;4881492;29;19934;-73
2023/10/24 07:14:39;;;;;;;;;;;;;;;6.08;64.79;99320.94;4880298;29;19991;-71
2023/10/24 07:17:05;;;;;;;;;;;;;;;6.10;65.24;99320.94;4866214;29;19927;-75
2023/10/24 07:19:31;;;;;;;;;;;;;;;6.14;64.68;99327.84;4881420;29;19931;-71
2023/10/24 07:22:00;;;;;;;;;;;;;;;6.10;64.52;99320.94;4878780;29;19955;-74
2023/10/24 07:24:26;;;;;;;;;;;;;;;6.13;64.95;99328.69;4869471;29;19958;-76
2023/10/24 07:26:53;;;;;;;;;;;;;;;6.16;65.05;99333.88;4877857;29;19932;-74
2023/10/24 07:29:19;;;;;;;;;;;;;;;6.17;65.41;99331.31;4877394;29;20254;-76
2023/10/24 07:31:48;;;;;;;;;;;;;;;6.20;64.85;99330.44;4878408;29;19947;-73
2023/10/24 07:34:13;;;;;;;;;;;;;;;6.14;64.91;99325.25;4875917;29;20322;-73
2023/10/24 07:36:40;;;;;;;;;;;;;;;6.11;65.15;99335.56;4881746;29;19985;-77
2023/10/24 07:39:09;;;;;;;;;;;;;;;6.16;65.12;99339.91;4871639;29;19929;-79
2023/10/24 07:41:36;;;;;;;;;;;;;;;6.14;64.94;99341.63;4892681;29;20299;-77
2023/10/24 07:44:13;;;;;;;;;;;;;;;6.21;64.82;99339.03;4885559;29;19935;-71
2023/10/24 07:46:40;;;;;;;;;;;;;;;6.25;64.82;99343.34;4872445;29;19978;-73
2023/10/24 07:49:35;;;;;;;;;;;;;;;6.31;65.36;99339.03;4871932;29;20398;-73
2023/10/24 07:52:03;;;;;;;;;;;;;;;6.32;64.96;99340.78;4866942;29;19923;-74
2023/10/24 07:54:50;;;;;;;;;;;;;;;6.35;64.45;99349.41;4876859;29;19955;-72
2023/10/24 07:57:16;;;;;;;;;;;;;;;6.36;64.65;99362.34;4880703;29;19924;-77
2023/10/24 07:59:44;;;;;;;;;;;;;;;6.36;64.87;99362.34;4871054;29;19991;-73
2023/10/24 08:02:10;;;;;;;;;;;;;;;6.28;64.45;99362.31;4884165;29;19935;-77
2023/10/24 08:04:36;;;;;;;;;;;;;;;6.22;64.90;99357.13;4883732;29;20037;-73
2023/10/24 08:07:19;;;;;;;;;;;;;;;6.18;64.69;99360.56;4882610;29;19963;-75
2023/10/24 08:09:45;;;;;;;;;;;;;;;6.24;64.83;99364.88;4884294;29;19924;-75
2023/10/24 08:12:11;;;;;;;;;;;;;;;6.28;64.99;99364.91;4889235;29;19935;-75
2023/10/24 08:14:47;;;;;;;;;;;;;;;6.25;65.00;99364.91;4888498;29;19928;-77
2023/10/24 08:17:15;;;;;;;;;;;;;;;6.21;64.42;99365.75;4898997;29;19933;-79
2023/10/24 08:19:41;;;;;;;;;;;;;;;6.20;64.53;99366.59;4895670;29;19987;-77
2023/10/24 08:22:07;;;;;;;;;;;;;;;6.16;64.03;99367.47;4900653;29;19935;-80
2023/10/24 08:24:34;;;;;;;;;;;;;;;6.16;64.83;99373.50;4874773;29;19931;-71
2023/10/24 08:27:02;;;;;;;;;;;;;;;6.21;64.85;99370.91;4862011;29;19924;-78
2023/10/24 08:29:31;;;;;;;;;;;;;;;6.22;64.64;99382.97;4874178;29;20422;-76
2023/10/24 08:31:58;;;;;;;;;;;;;;;6.23;64.72;99376.06;4874861;29;19931;-76
2023/10/24 08:34:24;;;;;;;;;;;;;;;6.21;64.28;99380.38;4890258;29;19928;-76
2023/10/24 08:36:49;;;;;;;;;;;;;;;6.15;64.45;99381.22;4887900;29;20347;-76
2023/10/24 08:39:16;;;;;;;;;;;;;;;6.16;64.18;99383.84;4889289;29;20011;-76
2023/10/24 08:41:48;;;;;;;;;;;;;;;6.05;64.78;99367.44;4885885;29;19935;-74
2023/10/24 08:44:20;;;;;;;;;;;;;;;6.17;63.90;99385.56;4883894;29;19975;-78
2023/10/24 08:46:47;;;;;;;;;;;;;;;6.14;63.85;99384.66;4876625;29;19927;-75
2023/10/24 08:49:15;;;;;;;;;;;;;;;6.10;64.64;99385.50;4872992;29;19928;-77
2023/10/24 08:51:41;;;;;;;;;;;;;;;6.13;64.74;99386.41;4890415;29;19971;-75
2023/10/24 08:54:08;;;;;;;;;;;;;;;6.14;64.71;99390.72;4883296;29;20170;-76
2023/10/24 08:56:36;;;;;;;;;;;;;;;6.15;64.61;99386.41;4871194;29;21322;-74
2023/10/24 08:59:07;;;;;;;;;;;;;;;6.16;64.41;99394.16;4872193;29;19962;-76
2023/10/24 09:01:35;;;;;;;;;;;;;;;6.28;64.37;99398.50;4885070;29;19953;-74
2023/10/24 09:04:05;;;;;;;;;;;;;;;6.43;64.53;99396.78;4858666;29;19930;-73
2023/10/24 09:06:35;;;;;;;;;;;;;;;6.54;64.29;99405.41;4849993;29;19938;-75
2023/10/24 09:09:07;;;;;;;;;;;;;;;6.55;63.89;99404.56;4890058;29;19923;-75
2023/10/24 09:12:03;;;;;;;;;;;;;;;6.66;63.43;99407.16;4877815;29;19952;-77
2023/10/24 09:14:39;;;;;;;;;;;;;;;6.79;63.49;99410.59;4868947;29;19976;-75
2023/10/24 09:17:05;;;;;;;;;;;;;;;6.76;63.36;99410.59;4868761;29;19924;-72
2023/10/24 09:19:32;;;;;;;;;;;;;;;6.70;62.73;99418.38;4882774;29;19983;-72
2023/10/24 09:21:59;;;;;;;;;;;;;;;6.61;62.79;99414.91;4836323;29;19931;-70
2023/10/24 09:24:27;;;;;;;;;;;;;;;6.68;62.73;99420.09;4855383;29;19966;-69
2023/10/24 09:26:54;;;;;;;;;;;;;;;6.71;63.04;99420.09;4840688;29;20450;-72
2023/10/24 09:29:20;;;;;;;;;;;;;;;6.74;62.58;99425.25;4853744;29;19923;-71
2023/10/24 09:31:58;;;;;;;;;;;;;;;6.71;62.52;99427.88;4885733;29;19924;-72
2023/10/24 09:34:24;;;;;;;;;;;;;;;6.70;62.52;99424.41;4853808;29;19928;-74
2023/10/24 09:36:50;;;;;;;;;;;;;;;6.59;62.02;99426.97;4886784;29;19924;-71
2023/10/24 09:39:17;;;;;;;;;;;;;;;6.53;62.33;99421.78;4861305;29;20422;-69
2023/10/24 09:41:49;;;;;;;;;;;;;;;6.31;62.21;99408.81;4847308;29;19928;-70
2023/10/24 09:44:24;;;;;;;;;;;;;;;6.35;61.88;99438.13;4864635;29;20051;-71
2023/10/24 09:46:53;;;;;;;;;;;;;;;6.37;62.35;99426.09;4872354;29;19924;-70
2023/10/24 09:49:19;;;;;;;;;;;;;;;6.35;62.08;99440.72;4866128;29;19923;-69
2023/10/24 09:51:46;;;;;;;;;;;;;;;6.35;62.47;99443.31;4866621;29;19931;-71
2023/10/24 09:54:13;;;;;;;;;;;;;;;6.29;62.35;99448.44;4866125;29;19983;-70
2023/10/24 09:56:40;;;;;;;;;;;;;;;6.24;61.93;99451.03;4866266;29;19934;-69
2023/10/24 09:59:07;;;;;;;;;;;;;;;6.25;62.54;99451.88;4850180;29;19991;-69
2023/10/24 10:01:33;;;;;;;;;;;;;;;6.23;61.84;99448.44;4865426;29;20255;-68
2023/10/24 10:04:22;;;;;;;;;;;;;;;6.21;62.05;99451.03;4861872;29;19924;-68
2023/10/24 10:07:06;;;;;;;;;;;;;;;6.13;62.01;99455.28;4868352;29;19935;-69
2023/10/24 10:09:35;;;;;;;;;;;;;;;6.18;62.35;99466.50;4852495;29;19995;-69
2023/10/24 10:12:02;;;;;;;;;;;;;;;6.16;61.74;99463.94;4869201;29;19927;-72
2023/10/24 10:14:33;;;;;;;;;;;;;;;6.22;62.33;99463.09;4882031;29;19955;-73
2023/10/24 10:17:16;;;;;;;;;;;;;;;6.30;62.08;99465.69;4878553;29;19932;-68
2023/10/24 10:20:08;;;;;;;;;;;;;;;6.41;61.93;99461.41;4851000;29;19923;-69
2023/10/24 10:22:37;;;;;;;;;;;;;;;6.47;61.92;99463.16;4869493;29;19933;-71
2023/10/24 10:25:21;;;;;;;;;;;;;;;6.54;61.33;99470.03;4884375;29;19999;-70
2023/10/24 10:28:00;;;;;;;;;;;;;;;6.60;61.58;99470.06;4895642;29;19928;-70
2023/10/24 10:31:08;;;;;;;;;;;;;;;6.59;61.12;99460.59;4863364;29;20689;-71
2023/10/24 10:33:34;;;;;;;;;;;;;;;6.61;61.16;99468.38;4835188;29;20017;-70
2023/10/24 10:36:16;;;;;;;;;;;;;;;6.65;61.13;99476.97;4870298;29;19927;-67
2023/10/24 10:38:51;;;;;;;;;;;;;;;6.76;61.08;99476.13;4883109;29;21256;-70
2023/10/24 10:41:32;;;;;;;;;;;;;;;6.81;60.89;99483.91;4879565;29;19935;-71
2023/10/24 10:43:59;;;;;;;;;;;;;;;6.80;61.09;99487.34;4881381;29;20076;-67
2023/10/24 10:46:26;;;;;;;;;;;;;;;6.85;60.99;99490.81;4869828;29;19934;-71
2023/10/24 10:49:03;;;;;;;;;;;;;;;6.95;60.92;99496.00;4869675;29;19931;-70
2023/10/24 10:51:36;;;;;;;;;;;;;;;7.03;60.79;99500.31;4880408;29;20340;-69
2023/10/24 10:54:19;;;;;;;;;;;;;;;7.03;60.71;99499.44;4848564;29;19959;-69
2023/10/24 10:56:46;;;;;;;;;;;;;;;7.07;60.49;99507.19;4880262;29;19987;-70
2023/10/24 10:59:14;;;;;;;;;;;;;;;7.05;60.55;99508.94;4877885;29;19924;-67
2023/10/24 11:01:46;;;;;;;;;;;;;;;7.08;60.18;99503.75;4882066;29;19924;-69
2023/10/24 11:04:15;;;;;;;;;;;;;;;7.04;59.99;99509.81;4879489;29;19935;-70
2023/10/24 11:06:52;;;;;;;;;;;;;;;6.92;59.78;99513.25;4863439;29;20350;-75
2023/10/24 11:09:20;;;;;;;;;;;;;;;6.77;60.00;99511.47;4885856;29;19923;-68
2023/10/24 11:11:46;;;;;;;;;;;;;;;6.71;59.86;99521.81;4882515;29;19975;-67
2023/10/24 11:14:37;;;;;;;;;;;;;;;6.69;59.99;99518.34;4869309;29;19952;-68
2023/10/24 11:17:06;;;;;;;;;;;;;;;6.73;60.25;99524.41;4866683;29;19924;-68
2023/10/24 11:19:42;;;;;;;;;;;;;;;6.63;59.65;99523.50;4873033;29;19924;-67
2023/10/24 11:22:14;;;;;;;;;;;;;;;6.57;59.60;99532.09;4878570;29;19924;-66
2023/10/24 11:24:41;;;;;;;;;;;;;;;6.53;59.53;99530.38;4871784;29;19928;-70
2023/10/24 11:27:07;;;;;;;;;;;;;;;6.43;59.66;99532.06;4867457;29;19928;-67
2023/10/24 11:29:38;;;;;;;;;;;;;;;6.25;58.47;99540.63;4868146;29;19934;-66
2023/10/24 11:32:05;;;;;;;;;;;;;;;6.26;59.43;99555.25;4868170;29;19934;-65
2023/10/24 11:34:32;;;;;;;;;;;;;;;6.33;59.49;99556.16;4870103;29;19975;-68
2023/10/24 11:37:00;;;;;;;;;;;;;;;6.30;58.70;99556.97;4866568;29;19930;-66
2023/10/24 11:39:30;;;;;;;;;;;;;;;6.29;59.04;99563.00;4883668;29;19963;-68
2023/10/24 11:41:59;;;;;;;;;;;;;;;6.34;59.65;99568.22;4867204;29;19947;-66
2023/10/24 11:44:27;;;;;;;;;;;;;;;6.27;59.16;99569.91;4858420;29;19939;-65
2023/10/24 11:46:53;;;;;;;;;;;;;;;6.21;58.95;99571.59;4871030;29;19924;-67
2023/10/24 11:49:19;;;;;;;;;;;;;;;6.03;58.61;99581.84;4869432;29;19950;-68
2023/10/24 11:51:46;;;;;;;;;;;;;;;5.87;58.89;99574.78;4859858;29;19924;-70
2023/10/24 11:54:12;;;;;;;;;;;;;;;5.73;59.26;99588.47;4872266;29;20348;-67
2023/10/24 11:56:38;;;;;;;;;;;;;;;5.64;58.83;99585.81;4859053;29;19924;-67
2023/10/24 11:59:12;;;;;;;;;;;;;;;5.56;58.42;99584.91;4870017;29;19954;-68
2023/10/24 12:01:42;;;;;;;;;;;;;;;5.56;58.72;99596.09;4886093;29;19928;-68
2023/10/24 12:04:11;;;;;;;;;;;;;;;5.54;58.98;99602.09;4867167;29;19975;-67
2023/10/24 12:09:11;;;;;;;;;;;;;;;5.53;59.28;99605.53;4853881;29;19958;-68
2023/10/24 12:11:37;;;;;;;;;;;;;;;5.51;58.77;99604.66;4855161;29;19924;-68
2023/10/24 12:14:17;;;;;;;;;;;;;;;5.56;59.10;99608.16;4844741;29;20035;-66
2023/10/24 12:16:47;;;;;;;;;;;;;;;5.50;59.08;99616.72;4836480;29;19931;-70
2023/10/24 12:19:13;;;;;;;;;;;;;;;5.47;59.09;99611.50;4848940;29;19924;-71
2023/10/24 12:21:41;;;;;;;;;;;;;;;5.47;58.96;99613.22;4866251;29;19928;-69
2023/10/24 12:24:21;;;;;;;;;;;;;;;5.45;59.50;99620.06;4841459;29;19924;-70
2023/10/24 12:26:47;;;;;;;;;;;;;;;5.45;59.01;99613.22;4845222;29;19924;-70
2023/10/24 12:29:13;;;;;;;;;;;;;;;5.45;58.60;99618.38;4835927;29;19930;-67
2023/10/24 12:31:42;;;;;;;;;;;;;;;5.49;59.07;99619.25;4833290;29;20019;-68
2023/10/24 12:34:14;;;;;;;;;;;;;;;5.43;59.13;99636.41;4833190;29;19931;-69
2023/10/24 12:36:40;;;;;;;;;;;;;;;5.46;59.17;99635.59;4851076;29;19924;-67
2023/10/24 12:39:07;;;;;;;;;;;;;;;5.41;58.42;99638.09;4849283;29;19924;-67
2023/10/24 12:41:33;;;;;;;;;;;;;;;5.36;58.77;99633.75;4862448;29;19924;-71
2023/10/24 12:44:00;;;;;;;;;;;;;;;5.34;58.36;99640.63;4842493;29;19924;-72
2023/10/24 12:46:29;;;;;;;;;;;;;;;5.26;59.32;99644.00;4847964;29;20403;-68
2023/10/24 12:49:07;;;;;;;;;;;;;;;5.13;58.88;99645.59;4852219;29;19931;-71
2023/10/24 12:51:33;;;;;;;;;;;;;;;5.04;57.56;99647.22;4866051;29;20019;-68
2023/10/24 12:53:59;;;;;;;;;;;;;;;5.06;58.72;99646.34;4865370;29;19955;-68
2023/10/24 12:56:25;;;;;;;;;;;;;;;5.14;58.80;99649.03;4846697;29;20311;-68
2023/10/24 12:58:51;;;;;;;;;;;;;;;5.21;59.03;99649.94;4862613;29;19924;-70
2023/10/24 13:01:17;;;;;;;;;;;;;;;5.21;58.82;99649.94;4838650;29;19928;-71
2023/10/24 13:03:47;;;;;;;;;;;;;;;5.16;58.67;99655.06;4862358;29;19935;-70
2023/10/24 13:06:21;;;;;;;;;;;;;;;5.06;58.65;99655.81;4836688;29;19983;-71
2023/10/24 13:08:47;;;;;;;;;;;;;;;5.04;58.90;99642.91;4850388;29;19943;-67